VOML/IXE METAR and TAF weather

Enter ICAO airport designator
Station Type Date Time Source
VOML METAR 2019/04/18 10:30 UTC NOAA

VOML 181030Z 30012KT 9999 FEW020 32/22 Q1006 NOSIG


Station Type Date Time Source
VOML Decoded METAR 2019/04/18 10:30 UTC NOAA

Mangalore / Bajpe, India (VOML) 12-55N 074-53E 102M
Apr 18, 2019 - 06:30 AM EDT / 2019.04.18 1030 UTC
Wind: from the WNW (300 degrees) at 14 MPH (12 KT):0
Visibility: greater than 7 mile(s):0
Sky conditions: mostly clear
Temperature: 89 F (32 C)
Heat index: 95.0 F (35.0 C):1
Dew Point: 71 F (22 C)
Relative Humidity: 55%
Pressure (altimeter): 29.71 in. Hg (1006 hPa)
ob: VOML 181030Z 30012KT 9999 FEW020 32/22 Q1006 NOSIG
cycle: 10

Station Type Date Time Source
VOML TAF 2019/04/18 06:00 UTC NOAA

TAF VOML 180500Z 1806/1912 27010KT 6000 FEW015
TEMPO 1809/1812 4000 TSRA RA FEW015 SCT020 FEW025CB
BECMG 1815/1816 VRB02KT
BECMG 1821/1822 11005KT
BECMG 1906/1907 27010KT
TEMPO 1909/1912 FEW015 SCT020 FEW025CB

Example: see airport list